sensor_id;sensor_type;location;lat;lon;timestamp;P1;durP1;ratioP1;P2;durP2;ratioP2
29200;SDS011;16244;51.956;12.980;2023-01-19T00:00:03;26.83;;;12.67;;
29200;SDS011;16244;51.956;12.980;2023-01-19T00:02:33;23.30;;;11.83;;
29200;SDS011;16244;51.956;12.980;2023-01-19T00:05:00;26.60;;;11.73;;
29200;SDS011;16244;51.956;12.980;2023-01-19T00:07:29;19.20;;;11.07;;
29200;SDS011;16244;51.956;12.980;2023-01-19T00:09:57;23.93;;;12.63;;
29200;SDS011;16244;51.956;12.980;2023-01-19T00:12:24;26.70;;;11.23;;
29200;SDS011;16244;51.956;12.980;2023-01-19T00:14:52;25.37;;;12.40;;
29200;SDS011;16244;51.956;12.980;2023-01-19T00:17:19;21.80;;;12.10;;
29200;SDS011;16244;51.956;12.980;2023-01-19T00:19:46;19.23;;;11.77;;
29200;SDS011;16244;51.956;12.980;2023-01-19T00:22:13;23.70;;;12.20;;
29200;SDS011;16244;51.956;12.980;2023-01-19T00:24:42;13.83;;;10.47;;
29200;SDS011;16244;51.956;12.980;2023-01-19T00:27:10;23.70;;;11.87;;
29200;SDS011;16244;51.956;12.980;2023-01-19T00:29:37;24.97;;;11.00;;
29200;SDS011;16244;51.956;12.980;2023-01-19T00:32:05;25.50;;;11.20;;
29200;SDS011;16244;51.956;12.980;2023-01-19T00:34:32;15.60;;;10.00;;
29200;SDS011;16244;51.956;12.980;2023-01-19T00:37:04;21.10;;;11.27;;
29200;SDS011;16244;51.956;12.980;2023-01-19T00:39:31;21.10;;;10.80;;
29200;SDS011;16244;51.956;12.980;2023-01-19T00:41:59;14.50;;;10.80;;
29200;SDS011;16244;51.956;12.980;2023-01-19T00:44:44;17.93;;;11.23;;
29200;SDS011;16244;51.956;12.980;2023-01-19T00:47:11;25.97;;;11.37;;
29200;SDS011;16244;51.956;12.980;2023-01-19T00:49:39;23.57;;;11.90;;
29200;SDS011;16244;51.956;12.980;2023-01-19T00:52:06;23.60;;;11.53;;
29200;SDS011;16244;51.956;12.980;2023-01-19T00:54:34;27.30;;;11.13;;
29200;SDS011;16244;51.956;12.980;2023-01-19T00:57:02;16.27;;;10.80;;
29200;SDS011;16244;51.956;12.980;2023-01-19T00:59:29;19.87;;;10.93;;
29200;SDS011;16244;51.956;12.980;2023-01-19T01:01:57;18.70;;;10.03;;
29200;SDS011;16244;51.956;12.980;2023-01-19T01:04:24;17.70;;;10.00;;
29200;SDS011;16244;51.956;12.980;2023-01-19T01:06:51;16.27;;;10.50;;
29200;SDS011;16244;51.956;12.980;2023-01-19T01:09:18;19.43;;;11.10;;
29200;SDS011;16244;51.956;12.980;2023-01-19T01:11:45;17.63;;;11.00;;
29200;SDS011;16244;51.956;12.980;2023-01-19T01:14:14;20.17;;;11.10;;
29200;SDS011;16244;51.956;12.980;2023-01-19T01:16:41;13.67;;;9.93;;
29200;SDS011;16244;51.956;12.980;2023-01-19T01:19:09;15.73;;;11.23;;
29200;SDS011;16244;51.956;12.980;2023-01-19T01:21:36;17.57;;;10.73;;
29200;SDS011;16244;51.956;12.980;2023-01-19T01:24:03;22.50;;;11.70;;
29200;SDS011;16244;51.956;12.980;2023-01-19T01:26:31;21.13;;;11.50;;
29200;SDS011;16244;51.956;12.980;2023-01-19T01:28:58;16.70;;;11.83;;
29200;SDS011;16244;51.956;12.980;2023-01-19T01:31:26;20.53;;;11.07;;
29200;SDS011;16244;51.956;12.980;2023-01-19T01:33:54;22.10;;;10.73;;
29200;SDS011;16244;51.956;12.980;2023-01-19T01:36:21;14.80;;;11.33;;
29200;SDS011;16244;51.956;12.980;2023-01-19T01:38:48;15.90;;;10.30;;
29200;SDS011;16244;51.956;12.980;2023-01-19T01:41:16;19.67;;;11.07;;
29200;SDS011;16244;51.956;12.980;2023-01-19T01:43:44;18.43;;;11.60;;
29200;SDS011;16244;51.956;12.980;2023-01-19T01:46:13;21.57;;;11.23;;
29200;SDS011;16244;51.956;12.980;2023-01-19T01:48:43;14.40;;;10.10;;
29200;SDS011;16244;51.956;12.980;2023-01-19T01:51:18;18.10;;;10.50;;
29200;SDS011;16244;51.956;12.980;2023-01-19T01:53:51;17.40;;;10.77;;
29200;SDS011;16244;51.956;12.980;2023-01-19T01:56:35;18.87;;;11.13;;
29200;SDS011;16244;51.956;12.980;2023-01-19T01:59:05;18.13;;;9.63;;
29200;SDS011;16244;51.956;12.980;2023-01-19T02:01:35;16.87;;;10.27;;
29200;SDS011;16244;51.956;12.980;2023-01-19T02:04:21;16.50;;;11.23;;
29200;SDS011;16244;51.956;12.980;2023-01-19T02:06:49;13.40;;;9.43;;
29200;SDS011;16244;51.956;12.980;2023-01-19T02:09:34;11.17;;;7.93;;
29200;SDS011;16244;51.956;12.980;2023-01-19T02:12:21;21.60;;;10.33;;
29200;SDS011;16244;51.956;12.980;2023-01-19T02:15:13;12.87;;;9.40;;
29200;SDS011;16244;51.956;12.980;2023-01-19T02:17:41;10.27;;;8.37;;
29200;SDS011;16244;51.956;12.980;2023-01-19T02:20:10;16.30;;;9.73;;
29200;SDS011;16244;51.956;12.980;2023-01-19T02:22:39;19.20;;;8.77;;
29200;SDS011;16244;51.956;12.980;2023-01-19T02:25:14;15.63;;;9.97;;
29200;SDS011;16244;51.956;12.980;2023-01-19T02:27:43;13.13;;;9.70;;
29200;SDS011;16244;51.956;12.980;2023-01-19T02:30:11;12.53;;;8.60;;
29200;SDS011;16244;51.956;12.980;2023-01-19T02:32:39;15.00;;;10.40;;
29200;SDS011;16244;51.956;12.980;2023-01-19T02:35:06;12.80;;;9.20;;
29200;SDS011;16244;51.956;12.980;2023-01-19T02:37:35;12.97;;;9.57;;
29200;SDS011;16244;51.956;12.980;2023-01-19T02:40:05;11.60;;;9.97;;
29200;SDS011;16244;51.956;12.980;2023-01-19T02:42:39;21.73;;;10.27;;
29200;SDS011;16244;51.956;12.980;2023-01-19T02:45:10;15.60;;;8.47;;
29200;SDS011;16244;51.956;12.980;2023-01-19T02:47:40;14.57;;;8.47;;
29200;SDS011;16244;51.956;12.980;2023-01-19T02:53:11;17.67;;;9.50;;
29200;SDS011;16244;51.956;12.980;2023-01-19T02:55:52;12.90;;;8.57;;
29200;SDS011;16244;51.956;12.980;2023-01-19T02:58:25;10.27;;;8.03;;
29200;SDS011;16244;51.956;12.980;2023-01-19T03:01:00;14.03;;;9.40;;
29200;SDS011;16244;51.956;12.980;2023-01-19T03:03:38;10.60;;;9.50;;
29200;SDS011;16244;51.956;12.980;2023-01-19T03:06:17;11.03;;;8.83;;
29200;SDS011;16244;51.956;12.980;2023-01-19T03:08:52;16.80;;;9.67;;
29200;SDS011;16244;51.956;12.980;2023-01-19T03:11:21;12.90;;;8.97;;
29200;SDS011;16244;51.956;12.980;2023-01-19T03:13:55;15.30;;;9.20;;
29200;SDS011;16244;51.956;12.980;2023-01-19T03:16:27;19.43;;;9.43;;
29200;SDS011;16244;51.956;12.980;2023-01-19T03:19:02;18.07;;;10.07;;
29200;SDS011;16244;51.956;12.980;2023-01-19T03:21:34;13.37;;;8.83;;
29200;SDS011;16244;51.956;12.980;2023-01-19T03:24:04;10.97;;;8.53;;
29200;SDS011;16244;51.956;12.980;2023-01-19T03:26:35;11.60;;;7.97;;
29200;SDS011;16244;51.956;12.980;2023-01-19T03:29:07;14.47;;;10.17;;
29200;SDS011;16244;51.956;12.980;2023-01-19T03:31:37;14.33;;;9.50;;
29200;SDS011;16244;51.956;12.980;2023-01-19T03:34:07;10.47;;;9.10;;
29200;SDS011;16244;51.956;12.980;2023-01-19T03:36:39;18.53;;;8.83;;
29200;SDS011;16244;51.956;12.980;2023-01-19T03:39:09;17.43;;;9.87;;
29200;SDS011;16244;51.956;12.980;2023-01-19T03:41:40;17.40;;;8.73;;
29200;SDS011;16244;51.956;12.980;2023-01-19T03:44:11;20.50;;;10.20;;
29200;SDS011;16244;51.956;12.980;2023-01-19T03:46:38;12.30;;;8.70;;
29200;SDS011;16244;51.956;12.980;2023-01-19T03:49:06;10.63;;;8.60;;
29200;SDS011;16244;51.956;12.980;2023-01-19T03:51:34;13.47;;;10.07;;
29200;SDS011;16244;51.956;12.980;2023-01-19T03:54:03;11.07;;;8.87;;
29200;SDS011;16244;51.956;12.980;2023-01-19T03:56:31;12.20;;;9.33;;
29200;SDS011;16244;51.956;12.980;2023-01-19T03:58:58;15.73;;;9.80;;
29200;SDS011;16244;51.956;12.980;2023-01-19T04:01:27;15.90;;;8.50;;
29200;SDS011;16244;51.956;12.980;2023-01-19T04:03:54;19.03;;;9.70;;
29200;SDS011;16244;51.956;12.980;2023-01-19T04:06:21;12.93;;;8.90;;
29200;SDS011;16244;51.956;12.980;2023-01-19T04:08:49;10.40;;;7.57;;
29200;SDS011;16244;51.956;12.980;2023-01-19T04:11:16;13.47;;;8.87;;
29200;SDS011;16244;51.956;12.980;2023-01-19T04:13:44;12.60;;;8.70;;
29200;SDS011;16244;51.956;12.980;2023-01-19T04:16:11;9.97;;;7.70;;
29200;SDS011;16244;51.956;12.980;2023-01-19T04:18:39;14.20;;;10.00;;
29200;SDS011;16244;51.956;12.980;2023-01-19T04:21:07;12.23;;;8.80;;
29200;SDS011;16244;51.956;12.980;2023-01-19T04:23:35;10.43;;;7.80;;
29200;SDS011;16244;51.956;12.980;2023-01-19T04:26:03;12.83;;;8.33;;
29200;SDS011;16244;51.956;12.980;2023-01-19T04:28:32;13.63;;;8.27;;
29200;SDS011;16244;51.956;12.980;2023-01-19T04:31:01;13.33;;;8.60;;
29200;SDS011;16244;51.956;12.980;2023-01-19T04:33:28;10.23;;;7.77;;
29200;SDS011;16244;51.956;12.980;2023-01-19T04:35:57;18.50;;;7.80;;
29200;SDS011;16244;51.956;12.980;2023-01-19T04:38:24;12.33;;;8.43;;
29200;SDS011;16244;51.956;12.980;2023-01-19T04:40:52;12.90;;;8.60;;
29200;SDS011;16244;51.956;12.980;2023-01-19T04:43:20;14.90;;;8.87;;
29200;SDS011;16244;51.956;12.980;2023-01-19T04:45:48;10.57;;;7.00;;
29200;SDS011;16244;51.956;12.980;2023-01-19T04:48:16;10.23;;;7.20;;
29200;SDS011;16244;51.956;12.980;2023-01-19T04:50:44;13.50;;;7.30;;
29200;SDS011;16244;51.956;12.980;2023-01-19T04:53:13;11.57;;;8.10;;
29200;SDS011;16244;51.956;12.980;2023-01-19T04:55:41;16.93;;;6.90;;
29200;SDS011;16244;51.956;12.980;2023-01-19T04:58:08;7.50;;;6.80;;
29200;SDS011;16244;51.956;12.980;2023-01-19T05:00:35;11.33;;;6.57;;
29200;SDS011;16244;51.956;12.980;2023-01-19T05:03:02;13.53;;;7.33;;
29200;SDS011;16244;51.956;12.980;2023-01-19T05:05:30;14.60;;;7.13;;
29200;SDS011;16244;51.956;12.980;2023-01-19T05:07:57;7.47;;;6.70;;
29200;SDS011;16244;51.956;12.980;2023-01-19T05:10:26;9.60;;;7.13;;
29200;SDS011;16244;51.956;12.980;2023-01-19T05:12:53;10.70;;;7.30;;
29200;SDS011;16244;51.956;12.980;2023-01-19T05:15:21;8.30;;;6.53;;
29200;SDS011;16244;51.956;12.980;2023-01-19T05:17:48;10.47;;;6.50;;
29200;SDS011;16244;51.956;12.980;2023-01-19T05:20:16;8.87;;;6.70;;
29200;SDS011;16244;51.956;12.980;2023-01-19T05:22:47;9.17;;;6.20;;
29200;SDS011;16244;51.956;12.980;2023-01-19T05:25:15;10.33;;;6.23;;
29200;SDS011;16244;51.956;12.980;2023-01-19T05:27:44;7.30;;;6.57;;
29200;SDS011;16244;51.956;12.980;2023-01-19T05:30:12;8.83;;;6.43;;
29200;SDS011;16244;51.956;12.980;2023-01-19T05:32:39;9.93;;;5.63;;
29200;SDS011;16244;51.956;12.980;2023-01-19T05:35:07;5.77;;;5.23;;
29200;SDS011;16244;51.956;12.980;2023-01-19T05:37:35;7.00;;;5.37;;
29200;SDS011;16244;51.956;12.980;2023-01-19T05:40:02;6.73;;;5.10;;
29200;SDS011;16244;51.956;12.980;2023-01-19T05:42:31;7.03;;;5.37;;
29200;SDS011;16244;51.956;12.980;2023-01-19T05:45:00;11.63;;;6.40;;
29200;SDS011;16244;51.956;12.980;2023-01-19T05:47:28;7.13;;;5.40;;
29200;SDS011;16244;51.956;12.980;2023-01-19T05:49:55;9.50;;;5.67;;
29200;SDS011;16244;51.956;12.980;2023-01-19T05:52:23;6.90;;;5.50;;
29200;SDS011;16244;51.956;12.980;2023-01-19T05:54:50;7.00;;;5.50;;
29200;SDS011;16244;51.956;12.980;2023-01-19T05:57:19;4.50;;;4.30;;
29200;SDS011;16244;51.956;12.980;2023-01-19T05:59:47;9.93;;;6.07;;
29200;SDS011;16244;51.956;12.980;2023-01-19T06:02:15;5.70;;;4.83;;
29200;SDS011;16244;51.956;12.980;2023-01-19T06:04:42;7.03;;;5.33;;
29200;SDS011;16244;51.956;12.980;2023-01-19T06:07:10;5.50;;;5.10;;
29200;SDS011;16244;51.956;12.980;2023-01-19T06:09:37;4.77;;;4.40;;
29200;SDS011;16244;51.956;12.980;2023-01-19T06:12:04;5.30;;;4.90;;
29200;SDS011;16244;51.956;12.980;2023-01-19T06:14:32;5.13;;;4.00;;
29200;SDS011;16244;51.956;12.980;2023-01-19T06:17:01;7.20;;;4.20;;
29200;SDS011;16244;51.956;12.980;2023-01-19T06:19:31;4.13;;;3.87;;
29200;SDS011;16244;51.956;12.980;2023-01-19T06:21:59;4.67;;;4.37;;
29200;SDS011;16244;51.956;12.980;2023-01-19T06:24:27;8.17;;;5.90;;
29200;SDS011;16244;51.956;12.980;2023-01-19T06:26:55;5.17;;;4.80;;
29200;SDS011;16244;51.956;12.980;2023-01-19T06:29:22;5.13;;;4.70;;
29200;SDS011;16244;51.956;12.980;2023-01-19T06:31:49;5.40;;;4.93;;
29200;SDS011;16244;51.956;12.980;2023-01-19T06:34:17;5.73;;;5.07;;
29200;SDS011;16244;51.956;12.980;2023-01-19T06:36:45;13.40;;;4.73;;
29200;SDS011;16244;51.956;12.980;2023-01-19T06:39:13;8.50;;;4.63;;
29200;SDS011;16244;51.956;12.980;2023-01-19T06:41:40;5.07;;;3.70;;
29200;SDS011;16244;51.956;12.980;2023-01-19T06:44:07;6.00;;;4.60;;
29200;SDS011;16244;51.956;12.980;2023-01-19T06:46:34;5.57;;;5.13;;
29200;SDS011;16244;51.956;12.980;2023-01-19T06:49:01;3.90;;;3.60;;
29200;SDS011;16244;51.956;12.980;2023-01-19T06:51:28;4.33;;;3.93;;
29200;SDS011;16244;51.956;12.980;2023-01-19T06:53:57;4.23;;;3.93;;
29200;SDS011;16244;51.956;12.980;2023-01-19T06:56:24;4.57;;;4.30;;
29200;SDS011;16244;51.956;12.980;2023-01-19T06:58:52;5.33;;;4.50;;
29200;SDS011;16244;51.956;12.980;2023-01-19T07:01:19;4.80;;;4.30;;
29200;SDS011;16244;51.956;12.980;2023-01-19T07:03:47;5.67;;;4.87;;
29200;SDS011;16244;51.956;12.980;2023-01-19T07:06:14;7.40;;;5.13;;
29200;SDS011;16244;51.956;12.980;2023-01-19T07:08:41;8.97;;;5.43;;
29200;SDS011;16244;51.956;12.980;2023-01-19T07:11:12;7.17;;;5.53;;
29200;SDS011;16244;51.956;12.980;2023-01-19T07:13:39;5.10;;;4.80;;
29200;SDS011;16244;51.956;12.980;2023-01-19T07:16:09;4.93;;;4.53;;
29200;SDS011;16244;51.956;12.980;2023-01-19T07:18:38;8.00;;;5.13;;
29200;SDS011;16244;51.956;12.980;2023-01-19T07:21:06;5.73;;;5.27;;
29200;SDS011;16244;51.956;12.980;2023-01-19T07:23:33;5.37;;;4.97;;
29200;SDS011;16244;51.956;12.980;2023-01-19T07:26:02;6.20;;;5.60;;
29200;SDS011;16244;51.956;12.980;2023-01-19T07:28:31;5.20;;;4.80;;
29200;SDS011;16244;51.956;12.980;2023-01-19T07:30:58;6.50;;;5.50;;
29200;SDS011;16244;51.956;12.980;2023-01-19T07:33:25;15.17;;;7.00;;
29200;SDS011;16244;51.956;12.980;2023-01-19T07:35:53;8.27;;;5.73;;
29200;SDS011;16244;51.956;12.980;2023-01-19T07:38:20;5.47;;;4.70;;
29200;SDS011;16244;51.956;12.980;2023-01-19T07:40:48;6.93;;;4.70;;
29200;SDS011;16244;51.956;12.980;2023-01-19T07:43:15;6.03;;;5.53;;
29200;SDS011;16244;51.956;12.980;2023-01-19T07:45:43;5.47;;;4.80;;
29200;SDS011;16244;51.956;12.980;2023-01-19T07:48:11;6.47;;;5.70;;
29200;SDS011;16244;51.956;12.980;2023-01-19T07:50:38;6.87;;;5.27;;
29200;SDS011;16244;51.956;12.980;2023-01-19T07:53:05;5.80;;;5.30;;
29200;SDS011;16244;51.956;12.980;2023-01-19T07:55:33;5.80;;;5.43;;
29200;SDS011;16244;51.956;12.980;2023-01-19T07:58:01;5.67;;;5.17;;
29200;SDS011;16244;51.956;12.980;2023-01-19T08:00:31;6.10;;;5.60;;
29200;SDS011;16244;51.956;12.980;2023-01-19T08:03:01;6.50;;;6.00;;
29200;SDS011;16244;51.956;12.980;2023-01-19T08:05:29;6.33;;;5.33;;
29200;SDS011;16244;51.956;12.980;2023-01-19T08:07:57;7.10;;;6.50;;
29200;SDS011;16244;51.956;12.980;2023-01-19T08:10:25;5.67;;;4.83;;
29200;SDS011;16244;51.956;12.980;2023-01-19T08:12:54;6.10;;;5.53;;
29200;SDS011;16244;51.956;12.980;2023-01-19T08:15:22;5.10;;;4.70;;
29200;SDS011;16244;51.956;12.980;2023-01-19T08:17:53;5.57;;;5.10;;
29200;SDS011;16244;51.956;12.980;2023-01-19T08:20:23;6.87;;;6.17;;
29200;SDS011;16244;51.956;12.980;2023-01-19T08:22:51;8.50;;;7.10;;
29200;SDS011;16244;51.956;12.980;2023-01-19T08:25:24;6.53;;;6.03;;
29200;SDS011;16244;51.956;12.980;2023-01-19T08:27:57;7.90;;;6.93;;
29200;SDS011;16244;51.956;12.980;2023-01-19T08:30:24;8.67;;;6.67;;
29200;SDS011;16244;51.956;12.980;2023-01-19T08:32:52;8.40;;;6.27;;
29200;SDS011;16244;51.956;12.980;2023-01-19T08:35:23;12.67;;;6.03;;
29200;SDS011;16244;51.956;12.980;2023-01-19T08:37:50;11.10;;;6.07;;
29200;SDS011;16244;51.956;12.980;2023-01-19T08:40:18;7.70;;;6.13;;
29200;SDS011;16244;51.956;12.980;2023-01-19T08:42:45;8.83;;;6.00;;
29200;SDS011;16244;51.956;12.980;2023-01-19T08:45:12;8.07;;;6.90;;
29200;SDS011;16244;51.956;12.980;2023-01-19T08:47:39;10.90;;;7.37;;
29200;SDS011;16244;51.956;12.980;2023-01-19T08:50:07;7.97;;;7.13;;
29200;SDS011;16244;51.956;12.980;2023-01-19T08:52:37;14.17;;;8.00;;
29200;SDS011;16244;51.956;12.980;2023-01-19T08:55:05;7.90;;;7.10;;
29200;SDS011;16244;51.956;12.980;2023-01-19T08:57:33;6.97;;;6.37;;
29200;SDS011;16244;51.956;12.980;2023-01-19T09:00:00;11.23;;;7.60;;
29200;SDS011;16244;51.956;12.980;2023-01-19T09:02:29;10.07;;;7.17;;
29200;SDS011;16244;51.956;12.980;2023-01-19T09:04:56;12.13;;;7.67;;
29200;SDS011;16244;51.956;12.980;2023-01-19T09:07:23;8.43;;;7.60;;
29200;SDS011;16244;51.956;12.980;2023-01-19T09:09:54;10.63;;;8.03;;
29200;SDS011;16244;51.956;12.980;2023-01-19T09:12:21;12.43;;;7.97;;
29200;SDS011;16244;51.956;12.980;2023-01-19T09:14:48;11.17;;;8.83;;
29200;SDS011;16244;51.956;12.980;2023-01-19T09:17:15;12.87;;;7.70;;
29200;SDS011;16244;51.956;12.980;2023-01-19T09:19:43;8.53;;;7.70;;
29200;SDS011;16244;51.956;12.980;2023-01-19T09:22:10;10.17;;;8.30;;
29200;SDS011;16244;51.956;12.980;2023-01-19T09:24:37;8.17;;;7.37;;
29200;SDS011;16244;51.956;12.980;2023-01-19T09:27:06;10.50;;;8.40;;
29200;SDS011;16244;51.956;12.980;2023-01-19T09:29:33;9.17;;;8.17;;
29200;SDS011;16244;51.956;12.980;2023-01-19T09:32:00;13.20;;;8.57;;
29200;SDS011;16244;51.956;12.980;2023-01-19T09:34:27;11.40;;;8.80;;
29200;SDS011;16244;51.956;12.980;2023-01-19T09:36:56;13.00;;;9.10;;
29200;SDS011;16244;51.956;12.980;2023-01-19T09:39:23;16.03;;;8.23;;
29200;SDS011;16244;51.956;12.980;2023-01-19T09:41:54;8.50;;;7.70;;
29200;SDS011;16244;51.956;12.980;2023-01-19T09:44:30;9.30;;;8.03;;
29200;SDS011;16244;51.956;12.980;2023-01-19T09:46:59;10.07;;;8.20;;
29200;SDS011;16244;51.956;12.980;2023-01-19T09:49:30;19.40;;;9.50;;
29200;SDS011;16244;51.956;12.980;2023-01-19T09:52:00;26.37;;;14.30;;
29200;SDS011;16244;51.956;12.980;2023-01-19T09:54:28;10.90;;;8.50;;
29200;SDS011;16244;51.956;12.980;2023-01-19T09:57:01;8.60;;;7.63;;
29200;SDS011;16244;51.956;12.980;2023-01-19T09:59:36;11.63;;;8.67;;
29200;SDS011;16244;51.956;12.980;2023-01-19T10:02:14;11.53;;;9.57;;
29200;SDS011;16244;51.956;12.980;2023-01-19T10:04:53;11.33;;;8.87;;
29200;SDS011;16244;51.956;12.980;2023-01-19T10:07:30;8.73;;;7.63;;
29200;SDS011;16244;51.956;12.980;2023-01-19T10:10:08;15.17;;;8.33;;
29200;SDS011;16244;51.956;12.980;2023-01-19T10:12:54;9.70;;;8.70;;
29200;SDS011;16244;51.956;12.980;2023-01-19T10:15:33;11.40;;;9.43;;
29200;SDS011;16244;51.956;12.980;2023-01-19T10:18:12;11.13;;;8.40;;
29200;SDS011;16244;51.956;12.980;2023-01-19T10:20:43;13.20;;;9.60;;
29200;SDS011;16244;51.956;12.980;2023-01-19T10:23:18;28.57;;;13.67;;
29200;SDS011;16244;51.956;12.980;2023-01-19T10:26:07;12.07;;;8.83;;
29200;SDS011;16244;51.956;12.980;2023-01-19T10:28:38;11.87;;;9.00;;
29200;SDS011;16244;51.956;12.980;2023-01-19T10:31:07;10.47;;;9.00;;
29200;SDS011;16244;51.956;12.980;2023-01-19T10:33:35;14.67;;;8.70;;
29200;SDS011;16244;51.956;12.980;2023-01-19T10:36:04;12.93;;;9.03;;
29200;SDS011;16244;51.956;12.980;2023-01-19T10:38:33;10.43;;;8.97;;
29200;SDS011;16244;51.956;12.980;2023-01-19T10:41:00;11.97;;;9.03;;
29200;SDS011;16244;51.956;12.980;2023-01-19T10:43:39;9.87;;;8.47;;
29200;SDS011;16244;51.956;12.980;2023-01-19T10:46:15;14.77;;;8.80;;
29200;SDS011;16244;51.956;12.980;2023-01-19T10:48:47;14.53;;;9.57;;
29200;SDS011;16244;51.956;12.980;2023-01-19T10:51:15;9.83;;;8.40;;
29200;SDS011;16244;51.956;12.980;2023-01-19T10:53:51;13.10;;;9.20;;
29200;SDS011;16244;51.956;12.980;2023-01-19T10:56:22;9.40;;;8.50;;
29200;SDS011;16244;51.956;12.980;2023-01-19T10:58:50;14.40;;;8.40;;
29200;SDS011;16244;51.956;12.980;2023-01-19T11:01:20;13.67;;;8.80;;
29200;SDS011;16244;51.956;12.980;2023-01-19T11:03:48;12.37;;;8.50;;
29200;SDS011;16244;51.956;12.980;2023-01-19T11:06:20;14.20;;;11.50;;
29200;SDS011;16244;51.956;12.980;2023-01-19T11:08:49;14.10;;;11.23;;
29200;SDS011;16244;51.956;12.980;2023-01-19T11:11:17;13.70;;;10.03;;
29200;SDS011;16244;51.956;12.980;2023-01-19T11:14:00;14.40;;;10.50;;
29200;SDS011;16244;51.956;12.980;2023-01-19T11:16:33;14.80;;;10.57;;
29200;SDS011;16244;51.956;12.980;2023-01-19T11:19:02;15.17;;;10.17;;
29200;SDS011;16244;51.956;12.980;2023-01-19T11:21:30;12.80;;;9.70;;
29200;SDS011;16244;51.956;12.980;2023-01-19T11:23:58;12.07;;;10.20;;
29200;SDS011;16244;51.956;12.980;2023-01-19T11:26:31;11.47;;;9.03;;
29200;SDS011;16244;51.956;12.980;2023-01-19T11:29:05;10.40;;;8.23;;
29200;SDS011;16244;51.956;12.980;2023-01-19T11:31:42;13.03;;;9.30;;
29200;SDS011;16244;51.956;12.980;2023-01-19T11:34:21;11.40;;;8.13;;
29200;SDS011;16244;51.956;12.980;2023-01-19T11:36:54;11.77;;;7.80;;
29200;SDS011;16244;51.956;12.980;2023-01-19T11:39:24;10.80;;;9.37;;
29200;SDS011;16244;51.956;12.980;2023-01-19T11:41:54;18.77;;;9.70;;
29200;SDS011;16244;51.956;12.980;2023-01-19T11:44:23;11.00;;;9.90;;
29200;SDS011;16244;51.956;12.980;2023-01-19T11:46:55;12.60;;;10.50;;
29200;SDS011;16244;51.956;12.980;2023-01-19T11:49:26;10.90;;;8.83;;
29200;SDS011;16244;51.956;12.980;2023-01-19T11:52:05;11.33;;;8.70;;
29200;SDS011;16244;51.956;12.980;2023-01-19T11:54:44;13.33;;;9.47;;
29200;SDS011;16244;51.956;12.980;2023-01-19T11:57:17;9.93;;;8.70;;
29200;SDS011;16244;51.956;12.980;2023-01-19T11:59:45;16.60;;;8.50;;
29200;SDS011;16244;51.956;12.980;2023-01-19T12:02:16;14.60;;;9.60;;
29200;SDS011;16244;51.956;12.980;2023-01-19T12:04:49;12.40;;;8.93;;
29200;SDS011;16244;51.956;12.980;2023-01-19T12:07:22;9.77;;;8.80;;
29200;SDS011;16244;51.956;12.980;2023-01-19T12:09:55;11.80;;;9.37;;
29200;SDS011;16244;51.956;12.980;2023-01-19T12:12:32;13.40;;;9.03;;
29200;SDS011;16244;51.956;12.980;2023-01-19T12:15:04;13.10;;;10.47;;
29200;SDS011;16244;51.956;12.980;2023-01-19T12:17:36;14.90;;;10.07;;
29200;SDS011;16244;51.956;12.980;2023-01-19T12:20:12;12.97;;;9.33;;
29200;SDS011;16244;51.956;12.980;2023-01-19T12:22:46;11.80;;;8.90;;
29200;SDS011;16244;51.956;12.980;2023-01-19T12:25:37;10.57;;;9.30;;
29200;SDS011;16244;51.956;12.980;2023-01-19T12:28:12;10.37;;;9.20;;
29200;SDS011;16244;51.956;12.980;2023-01-19T12:30:41;12.40;;;9.43;;
29200;SDS011;16244;51.956;12.980;2023-01-19T12:33:20;10.60;;;9.50;;
29200;SDS011;16244;51.956;12.980;2023-01-19T12:36:02;12.80;;;9.80;;
29200;SDS011;16244;51.956;12.980;2023-01-19T12:38:36;15.90;;;9.87;;
29200;SDS011;16244;51.956;12.980;2023-01-19T12:41:21;14.97;;;9.77;;
29200;SDS011;16244;51.956;12.980;2023-01-19T12:46:46;9.83;;;8.93;;
29200;SDS011;16244;51.956;12.980;2023-01-19T12:49:25;21.07;;;10.10;;
29200;SDS011;16244;51.956;12.980;2023-01-19T12:52:08;11.27;;;9.90;;
29200;SDS011;16244;51.956;12.980;2023-01-19T12:54:39;14.70;;;9.83;;
29200;SDS011;16244;51.956;12.980;2023-01-19T12:57:14;15.47;;;9.33;;
29200;SDS011;16244;51.956;12.980;2023-01-19T12:59:45;13.90;;;9.57;;
29200;SDS011;16244;51.956;12.980;2023-01-19T13:02:29;14.40;;;10.03;;
29200;SDS011;16244;51.956;12.980;2023-01-19T13:05:16;10.03;;;9.00;;
29200;SDS011;16244;51.956;12.980;2023-01-19T13:17:03;10.70;;;8.50;;
29200;SDS011;16244;51.956;12.980;2023-01-19T13:19:53;9.57;;;8.43;;
29200;SDS011;16244;51.956;12.980;2023-01-19T13:25:50;11.30;;;8.20;;
29200;SDS011;16244;51.956;12.980;2023-01-19T13:28:27;9.23;;;7.87;;
29200;SDS011;16244;51.956;12.980;2023-01-19T13:30:58;11.43;;;8.60;;
29200;SDS011;16244;51.956;12.980;2023-01-19T13:33:28;8.77;;;7.97;;
29200;SDS011;16244;51.956;12.980;2023-01-19T13:36:02;10.27;;;8.10;;
29200;SDS011;16244;51.956;12.980;2023-01-19T13:38:31;9.80;;;8.43;;
29200;SDS011;16244;51.956;12.980;2023-01-19T13:40:59;11.13;;;8.47;;
29200;SDS011;16244;51.956;12.980;2023-01-19T13:43:30;19.40;;;10.17;;
29200;SDS011;16244;51.956;12.980;2023-01-19T13:46:02;10.90;;;9.43;;
29200;SDS011;16244;51.956;12.980;2023-01-19T13:48:31;13.63;;;10.20;;
29200;SDS011;16244;51.956;12.980;2023-01-19T13:51:02;11.10;;;8.10;;
29200;SDS011;16244;51.956;12.980;2023-01-19T13:53:32;15.80;;;9.87;;
29200;SDS011;16244;51.956;12.980;2023-01-19T13:56:04;15.03;;;9.30;;
29200;SDS011;16244;51.956;12.980;2023-01-19T13:58:33;11.47;;;8.83;;
29200;SDS011;16244;51.956;12.980;2023-01-19T14:01:00;8.33;;;7.53;;
29200;SDS011;16244;51.956;12.980;2023-01-19T14:03:27;16.97;;;8.93;;
29200;SDS011;16244;51.956;12.980;2023-01-19T14:05:55;15.77;;;8.00;;
29200;SDS011;16244;51.956;12.980;2023-01-19T14:08:22;16.93;;;8.80;;
29200;SDS011;16244;51.956;12.980;2023-01-19T14:11:00;9.60;;;8.00;;
29200;SDS011;16244;51.956;12.980;2023-01-19T14:13:29;11.40;;;7.70;;
29200;SDS011;16244;51.956;12.980;2023-01-19T14:15:58;11.23;;;8.77;;
29200;SDS011;16244;51.956;12.980;2023-01-19T14:18:30;9.70;;;8.70;;
29200;SDS011;16244;51.956;12.980;2023-01-19T14:20:59;8.33;;;7.53;;
29200;SDS011;16244;51.956;12.980;2023-01-19T14:23:34;11.17;;;8.03;;
29200;SDS011;16244;51.956;12.980;2023-01-19T14:29:22;12.30;;;8.33;;
29200;SDS011;16244;51.956;12.980;2023-01-19T14:31:52;12.57;;;8.20;;
29200;SDS011;16244;51.956;12.980;2023-01-19T14:34:32;10.93;;;8.70;;
29200;SDS011;16244;51.956;12.980;2023-01-19T14:37:02;9.03;;;7.10;;
29200;SDS011;16244;51.956;12.980;2023-01-19T14:39:31;10.33;;;7.07;;
29200;SDS011;16244;51.956;12.980;2023-01-19T14:42:00;8.70;;;7.83;;
29200;SDS011;16244;51.956;12.980;2023-01-19T14:44:34;8.30;;;7.23;;
29200;SDS011;16244;51.956;12.980;2023-01-19T14:47:03;9.27;;;7.73;;
29200;SDS011;16244;51.956;12.980;2023-01-19T14:49:33;8.50;;;7.60;;
29200;SDS011;16244;51.956;12.980;2023-01-19T14:52:01;8.80;;;7.87;;
29200;SDS011;16244;51.956;12.980;2023-01-19T14:54:32;9.63;;;7.47;;
29200;SDS011;16244;51.956;12.980;2023-01-19T14:57:02;14.43;;;8.90;;
29200;SDS011;16244;51.956;12.980;2023-01-19T14:59:30;10.93;;;8.53;;
29200;SDS011;16244;51.956;12.980;2023-01-19T15:01:59;10.17;;;8.30;;